EDT,Max TemperatureF,Mean TemperatureF,Min TemperatureF,Max Dew PointF,MeanDew PointF,Min DewpointF,Max Humidity, Mean Humidity, Min Humidity, Max Sea Level PressureIn, Mean Sea Level PressureIn, Min Sea Level PressureIn, Max VisibilityMiles, Mean VisibilityMiles, Min VisibilityMiles, Max Wind SpeedMPH, Mean Wind SpeedMPH, Max Gust SpeedMPH,PrecipitationIn, CloudCover, Events, WindDirDegrees
2012-5-1,51,46,42,47,42,30,100,89,44,30.19,30.10,30.04,10,7,2,13,5,20,0.56,8,Rain,55
2012-5-2,52,48,44,45,43,41,89,84,77,30.22,30.19,30.14,10,10,10,6,4,,0.00,8,,96
2012-5-3,52,49,46,50,47,44,100,95,89,30.19,30.15,30.09,10,5,2,6,2,,0.27,8,Rain,153
2012-5-4,68,58,50,58,53,48,100,91,73,30.08,29.96,29.88,10,10,6,14,6,,0.02,7,Rain,152
2012-5-5,69,60,52,54,52,46,100,87,45,30.09,29.98,29.92,10,8,2,10,2,,0.01,7,,19
2012-5-6,68,58,46,52,47,42,100,71,40,30.12,30.08,30.02,10,10,10,8,1,,0.00,5,,122
2012-5-7,73,56,41,48,42,29,100,78,20,30.14,30.10,30.03,10,5,0,16,1,22,0.00,3,Fog,188
2012-5-8,57,52,46,55,50,44,97,91,64,30.09,29.95,29.85,10,8,4,13,7,24,0.58,8,Rain,169
2012-5-9,63,58,55,61,58,54,100,96,87,29.85,29.70,29.58,10,7,1,9,6,,0.01,8,Rain,182
2012-5-10,62,55,46,55,46,38,97,76,53,29.70,29.55,29.45,10,9,4,20,8,28,0.63,7,Rain,297
2012-5-11,64,53,42,38,34,29,85,52,28,30.07,29.88,29.72,10,10,10,17,7,26,0.00,3,,286
2012-5-12,79,56,33,48,36,26,100,67,19,30.18,30.12,30.07,10,8,0,16,2,23,0.00,1,Fog,290
2012-5-13,82,64,46,53,47,43,97,60,26,30.17,30.11,30.04,10,10,9,13,2,20,0.00,2,Rain,194
2012-5-14,72,64,57,61,58,53,100,88,65,30.18,30.14,30.09,10,8,2,20,2,25,0.26,7,Rain,182
2012-5-15,68,62,59,61,59,55,100,94,66,30.14,30.06,29.96,10,6,2,13,4,21,0.46,8,Rain,168
2012-5-16,73,66,59,63,61,58,100,90,71,29.96,29.89,29.80,10,9,2,12,3,,0.38,7,Rain-Thunderstorm,190
2012-5-17,69,57,45,56,40,32,97,61,30,30.17,30.05,29.92,10,10,10,17,7,23,0.01,0,,311
2012-5-18,73,55,37,48,39,32,97,62,23,30.26,30.20,30.14,10,10,2,8,1,,0.00,0,,203
2012-5-19,84,62,42,55,44,39,96,60,22,30.20,30.16,30.09,10,10,10,8,2,,0.00,0,,120
2012-5-20,87,67,48,52,50,47,100,64,28,30.29,30.23,30.18,10,9,2,10,1,,0.00,0,,137
2012-5-21,72,59,46,63,56,45,97,80,59,30.27,30.18,30.09,10,10,3,10,3,,0.05,6,Rain,120
2012-5-22,69,64,60,63,61,59,100,90,73,30.05,29.92,29.84,10,9,2,9,3,,0.08,8,Rain,51
2012-5-23,77,68,59,66,61,57,100,85,60,30.06,29.93,29.86,10,9,2,10,1,16,0.02,6,,224
2012-5-24,75,68,60,66,62,59,100,86,62,30.23,30.15,30.07,10,8,1,8,2,,0.09,7,Rain,172
2012-5-25,75,68,62,68,63,59,94,87,71,30.24,30.18,30.10,10,10,6,15,4,22,0.07,7,Rain,184
2012-5-26,84,73,60,68,63,50,100,78,32,30.11,30.09,30.04,10,10,6,10,5,,0.00,4,Rain,214
2012-5-27,82,66,51,59,54,50,100,71,34,30.19,30.11,30.00,10,7,0,10,2,,0.00,1,Fog,178
2012-5-28,84,72,61,67,61,55,97,70,47,30.03,29.95,29.89,10,10,5,10,3,,0.00,3,,100
2012-5-29,90,76,66,72,67,63,100,81,55,29.88,29.78,29.67,10,8,2,23,7,41,0.75,6,Rain-Thunderstorm,152
2012-5-30,77,68,62,66,63,57,100,88,53,29.77,29.74,29.69,10,8,0,13,3,20,0.06,5,Fog-Rain,192
2012-5-31,78,67,57,62,54,46,100,73,33,29.95,29.80,29.74,10,7,0,15,3,21,0.01,3,Fog,319